Time;durP1;ratioP1;P1;durP2;ratioP2;P2;SDS_P1;SDS_P2;PMS_P1;PMS_P2;Temp;Humidity;BMP_temperature;BMP_pressure;BME280_temperature;BME280_humidity;BME280_pressure;Samples;Min_cycle;Max_cycle;Signal;HPM_P1;HPM_P2
2022/09/21 00:00:23;;;;;;;6.15;2.28;;;8.80;99.90;;;;;;4986336;28;20085;-74
2022/09/21 00:02:49;;;;;;;5.90;2.33;;;8.80;99.90;;;;;;4984470;28;20046;-73
2022/09/21 00:05:15;;;;;;;6.75;2.13;;;8.80;99.90;;;;;;4985178;28;20038;-74
2022/09/21 00:07:41;;;;;;;3.92;1.70;;;8.80;99.90;;;;;;4982861;28;20070;-74
2022/09/21 00:10:07;;;;;;;3.53;1.10;;;8.80;99.90;;;;;;4988049;28;20066;-74
2022/09/21 00:12:33;;;;;;;2.05;1.10;;;8.80;99.90;;;;;;4985027;28;20430;-74
2022/09/21 00:14:59;;;;;;;4.72;1.60;;;8.70;99.90;;;;;;4982335;28;20050;-74
2022/09/21 00:17:25;;;;;;;2.08;1.42;;;8.70;99.90;;;;;;4984417;28;20047;-74
2022/09/21 00:19:51;;;;;;;2.72;1.42;;;8.70;99.90;;;;;;4967891;28;20046;-74
2022/09/21 00:22:16;;;;;;;2.35;1.60;;;8.60;99.90;;;;;;4983569;28;20046;-74
2022/09/21 00:24:42;;;;;;;0.50;0.50;;;8.60;99.90;;;;;;4984732;28;20061;-74
2022/09/21 00:27:08;;;;;;;1.90;1.30;;;8.50;99.90;;;;;;4982535;28;20405;-74
2022/09/21 00:29:34;;;;;;;0.80;0.80;;;8.40;99.90;;;;;;4985020;28;20149;-73
2022/09/21 00:32:00;;;;;;;2.00;1.20;;;8.40;99.90;;;;;;4985191;28;20059;-73
2022/09/21 00:34:26;;;;;;;4.85;1.80;;;8.30;99.90;;;;;;4984249;28;20042;-73
2022/09/21 00:36:52;;;;;;;2.47;1.15;;;8.30;99.90;;;;;;4984489;28;20132;-73
2022/09/21 00:39:17;;;;;;;2.08;0.98;;;8.20;99.90;;;;;;5000219;28;20125;-74
2022/09/21 00:41:43;;;;;;;1.40;1.20;;;8.20;99.90;;;;;;4985095;28;20042;-73
2022/09/21 00:44:28;;;;;;;8.50;1.23;;;8.10;99.90;;;;;;4987716;28;20054;-73
2022/09/21 00:46:59;;;;;;;1.15;1.05;;;8.10;99.90;;;;;;4982951;28;20039;-74
2022/09/21 00:49:26;;;;;;;2.45;1.00;;;8.10;99.90;;;;;;4983070;28;20039;-73
2022/09/21 00:51:52;;;;;;;1.20;1.00;;;8.00;99.90;;;;;;5002023;28;20049;-74
2022/09/21 00:54:26;;;;;;;0.85;0.85;;;8.00;99.90;;;;;;4984554;28;20050;-74
2022/09/21 00:56:53;;;;;;;1.58;0.90;;;8.00;99.90;;;;;;4985691;28;20049;-73
2022/09/21 00:59:19;;;;;;;1.20;0.90;;;7.90;99.90;;;;;;4988012;28;20080;-73
2022/09/21 01:01:46;;;;;;;0.90;0.90;;;7.90;99.90;;;;;;4988121;28;20038;-73
2022/09/21 01:04:12;;;;;;;2.78;1.10;;;7.90;99.90;;;;;;4987260;28;20046;-73
2022/09/21 01:06:40;;;;;;;2.03;1.27;;;7.90;99.90;;;;;;4978455;28;20038;-74
2022/09/21 01:09:06;;;;;;;1.00;1.00;;;7.90;99.90;;;;;;4982413;28;20054;-74
2022/09/21 01:11:50;;;;;;;0.90;0.90;;;7.90;99.90;;;;;;4984150;28;20049;-74
2022/09/21 01:14:46;;;;;;;2.30;1.40;;;7.80;99.90;;;;;;4981726;28;20046;-74
2022/09/21 01:17:15;;;;;;;2.63;1.05;;;7.90;99.90;;;;;;4983445;28;20050;-74
2022/09/21 01:20:03;;;;;;;11.93;1.55;;;7.80;99.90;;;;;;4984188;28;20042;-74
2022/09/21 01:22:47;;;;;;;2.95;1.10;;;7.80;99.90;;;;;;4966781;28;20080;-74
2022/09/21 01:25:33;;;;;;;2.78;1.10;;;7.80;99.90;;;;;;4984113;28;20038;-74
2022/09/21 01:28:05;;;;;;;1.50;1.25;;;7.80;99.90;;;;;;4980010;28;20077;-73
2022/09/21 01:30:34;;;;;;;1.80;1.20;;;7.80;99.90;;;;;;4984100;28;20057;-73
2022/09/21 01:33:14;;;;;;;2.22;1.40;;;7.80;99.90;;;;;;4984589;28;20046;-73
2022/09/21 01:35:47;;;;;;;4.15;1.20;;;7.70;99.90;;;;;;4980667;28;20042;-73
2022/09/21 01:38:23;;;;;;;2.17;1.05;;;7.70;99.90;;;;;;4979889;28;20057;-73
2022/09/21 01:40:54;;;;;;;2.72;1.30;;;7.70;99.90;;;;;;4990445;28;20075;-73
2022/09/21 01:43:24;;;;;;;2.25;1.00;;;7.60;99.90;;;;;;4989918;28;20073;-73
2022/09/21 01:45:53;;;;;;;0.98;0.80;;;7.60;99.90;;;;;;4981116;28;20053;-73
2022/09/21 01:48:21;;;;;;;2.30;0.70;;;7.50;99.90;;;;;;4983569;28;20042;-73
2022/09/21 01:50:55;;;;;;;1.45;0.70;;;7.50;99.90;;;;;;4983854;28;20086;-74
2022/09/21 01:53:45;;;;;;;1.13;0.80;;;7.50;99.90;;;;;;4983095;28;20130;-74
2022/09/21 01:56:32;;;;;;;3.35;0.95;;;7.40;99.90;;;;;;4981374;28;20054;-73
2022/09/21 01:59:24;;;;;;;0.85;0.85;;;7.30;99.90;;;;;;4980582;28;20387;-72
2022/09/21 02:01:58;;;;;;;1.55;0.80;;;7.30;99.90;;;;;;4976634;28;20047;-73
2022/09/21 02:04:24;;;;;;;0.90;0.90;;;7.30;99.90;;;;;;4965118;28;20084;-73
2022/09/21 02:06:50;;;;;;;0.60;0.60;;;7.30;99.90;;;;;;4994193;28;20065;-73
2022/09/21 02:09:16;;;;;;;0.60;0.60;;;7.30;99.90;;;;;;4967379;28;20074;-73
2022/09/21 02:11:43;;;;;;;1.95;0.80;;;7.30;99.90;;;;;;4983498;28;20138;-73
2022/09/21 02:14:12;;;;;;;1.98;0.80;;;7.30;99.90;;;;;;4983811;28;20465;-73
2022/09/21 02:16:48;;;;;;;2.83;1.00;;;7.30;99.90;;;;;;4980164;28;20049;-73
2022/09/21 02:19:23;;;;;;;1.77;1.02;;;7.30;99.90;;;;;;4978323;28;20046;-73
2022/09/21 02:22:12;;;;;;;1.17;1.10;;;7.30;99.90;;;;;;4981993;28;20137;-73
2022/09/21 02:24:49;;;;;;;1.50;1.40;;;7.20;99.90;;;;;;4982591;28;20049;-73
2022/09/21 02:27:37;;;;;;;3.83;1.88;;;7.20;99.90;;;;;;4981437;28;20061;-73
2022/09/21 02:30:17;;;;;;;2.08;1.80;;;7.20;99.90;;;;;;4982402;28;20046;-73
2022/09/21 02:33:13;;;;;;;7.10;1.90;;;7.20;99.90;;;;;;4979331;28;20050;-73
2022/09/21 02:36:06;;;;;;;6.00;2.00;;;7.20;99.90;;;;;;4964471;28;20176;-73
2022/09/21 02:38:57;;;;;;;4.38;2.00;;;7.20;99.90;;;;;;4981099;28;20045;-73
2022/09/21 02:41:28;;;;;;;3.60;1.50;;;7.20;99.90;;;;;;4983714;28;20533;-73
2022/09/21 02:44:08;;;;;;;3.38;1.52;;;7.10;99.90;;;;;;4980673;28;20109;-73
2022/09/21 02:46:44;;;;;;;2.50;1.60;;;7.10;99.90;;;;;;4982345;28;20487;-73
2022/09/21 02:49:18;;;;;;;3.30;1.65;;;7.10;99.90;;;;;;4980268;28;20041;-73
2022/09/21 02:51:50;;;;;;;3.03;1.27;;;7.10;99.90;;;;;;4979713;28;20046;-73
2022/09/21 02:54:24;;;;;;;2.40;1.60;;;7.10;99.90;;;;;;4981016;28;20043;-73
2022/09/21 02:56:52;;;;;;;1.55;0.50;;;7.10;99.90;;;;;;4982902;28;20045;-73
2022/09/21 02:59:20;;;;;;;1.58;0.70;;;7.00;99.90;;;;;;4977470;28;20047;-73
2022/09/21 03:01:46;;;;;;;2.15;1.10;;;6.90;99.90;;;;;;4981525;28;20082;-73
2022/09/21 03:04:12;;;;;;;1.08;0.80;;;6.90;99.90;;;;;;4977564;28;20139;-73
2022/09/21 03:06:37;;;;;;;2.70;0.90;;;6.80;99.90;;;;;;4979852;28;20042;-73
2022/09/21 03:09:03;;;;;;;4.30;1.08;;;6.80;99.90;;;;;;4981011;28;20046;-73
2022/09/21 03:11:29;;;;;;;1.33;1.00;;;6.80;99.90;;;;;;4982488;28;20042;-73
2022/09/21 03:13:54;;;;;;;2.47;1.50;;;6.80;99.90;;;;;;4980985;28;20120;-73
2022/09/21 03:16:22;;;;;;;2.03;1.50;;;6.70;99.90;;;;;;4982194;28;20053;-73
2022/09/21 03:18:48;;;;;;;2.20;1.63;;;6.70;99.90;;;;;;4979791;28;20045;-73
2022/09/21 03:21:13;;;;;;;2.65;1.63;;;6.70;99.90;;;;;;4981646;28;20494;-73
2022/09/21 03:23:39;;;;;;;4.15;1.30;;;6.80;99.90;;;;;;4981164;28;20509;-73
2022/09/21 03:26:05;;;;;;;3.13;1.23;;;6.80;99.90;;;;;;4979310;28;20120;-73
2022/09/21 03:28:31;;;;;;;3.00;1.15;;;6.70;99.90;;;;;;4980651;28;20049;-73
2022/09/21 03:30:56;;;;;;;1.60;1.23;;;6.70;99.90;;;;;;4966211;28;20229;-73
2022/09/21 03:33:24;;;;;;;2.25;1.40;;;6.70;99.90;;;;;;4979231;28;20046;-73
2022/09/21 03:35:50;;;;;;;2.00;1.40;;;6.70;99.90;;;;;;4982192;28;20050;-73
2022/09/21 03:38:16;;;;;;;3.50;1.60;;;6.70;99.90;;;;;;4978534;28;20185;-73
2022/09/21 03:40:46;;;;;;;3.47;1.90;;;6.70;99.90;;;;;;4981053;28;20129;-73
2022/09/21 03:43:12;;;;;;;3.42;1.30;;;6.70;99.90;;;;;;4986456;28;20061;-73
2022/09/21 03:45:39;;;;;;;3.13;1.30;;;6.70;99.90;;;;;;4983950;28;20050;-74
2022/09/21 03:48:05;;;;;;;4.20;1.02;;;6.70;99.90;;;;;;4986619;28;20045;-74
2022/09/21 03:50:31;;;;;;;2.28;1.25;;;6.60;99.90;;;;;;4977714;28;20042;-73
2022/09/21 03:52:57;;;;;;;2.33;1.40;;;6.60;99.90;;;;;;4984145;28;20038;-73
2022/09/21 03:55:24;;;;;;;1.25;1.00;;;6.60;99.90;;;;;;4983840;28;20047;-73
2022/09/21 03:57:49;;;;;;;1.17;1.00;;;6.60;99.90;;;;;;4982347;28;20046;-73
2022/09/21 04:00:15;;;;;;;3.28;0.82;;;6.50;99.90;;;;;;4982097;28;20048;-72
2022/09/21 04:02:41;;;;;;;0.80;0.80;;;6.50;99.90;;;;;;4982493;28;20085;-72
2022/09/21 04:05:13;;;;;;;1.33;0.93;;;6.60;99.90;;;;;;4984199;28;20042;-72
2022/09/21 04:07:40;;;;;;;2.55;1.40;;;6.50;99.90;;;;;;4987311;28;20039;-72
2022/09/21 04:10:13;;;;;;;2.00;1.48;;;6.50;99.90;;;;;;4987116;28;20042;-72
2022/09/21 04:12:42;;;;;;;6.53;1.80;;;6.50;99.90;;;;;;4980027;28;20043;-72
2022/09/21 04:15:10;;;;;;;1.73;1.40;;;6.50;99.90;;;;;;4982890;28;20789;-72
2022/09/21 04:17:35;;;;;;;1.85;1.30;;;6.50;99.90;;;;;;4978623;28;20109;-72
2022/09/21 04:20:01;;;;;;;2.63;1.10;;;6.60;99.90;;;;;;4985918;28;20494;-72
2022/09/21 04:22:27;;;;;;;1.83;1.00;;;6.60;99.90;;;;;;4985243;28;20077;-72
2022/09/21 04:24:52;;;;;;;1.38;0.98;;;6.50;99.90;;;;;;4991445;28;20031;-72
2022/09/21 04:27:18;;;;;;;2.90;1.23;;;6.60;99.90;;;;;;4982559;28;20113;-72
2022/09/21 04:29:44;;;;;;;1.58;1.20;;;6.50;99.90;;;;;;4983226;28;20050;-72
2022/09/21 04:32:10;;;;;;;1.40;1.23;;;6.60;99.90;;;;;;4987065;28;20053;-72
2022/09/21 04:34:38;;;;;;;1.85;1.27;;;6.50;99.90;;;;;;4991083;28;20097;-72
2022/09/21 04:37:10;;;;;;;1.60;1.42;;;6.60;99.90;;;;;;4988942;28;20062;-73
2022/09/21 04:39:36;;;;;;;1.92;1.38;;;6.60;99.90;;;;;;4981132;28;20046;-73
2022/09/21 04:42:02;;;;;;;3.03;1.73;;;6.50;99.90;;;;;;4988111;28;20050;-72
2022/09/21 04:44:29;;;;;;;1.80;1.63;;;6.60;99.90;;;;;;4988931;28;20046;-72
2022/09/21 04:46:55;;;;;;;2.50;1.35;;;6.60;99.90;;;;;;4986552;28;20049;-73
2022/09/21 04:49:21;;;;;;;5.30;1.60;;;6.60;99.90;;;;;;4967446;28;20046;-72
2022/09/21 04:51:47;;;;;;;3.08;1.60;;;6.60;99.90;;;;;;4984378;28;20121;-73
2022/09/21 04:54:13;;;;;;;3.10;1.85;;;6.60;99.90;;;;;;4975647;28;20042;-73
2022/09/21 04:56:38;;;;;;;5.05;1.90;;;6.60;99.90;;;;;;4980336;28;20476;-72
2022/09/21 04:59:04;;;;;;;2.53;1.67;;;6.60;99.90;;;;;;4970577;28;20054;-72
2022/09/21 05:01:30;;;;;;;4.32;1.10;;;6.70;99.90;;;;;;4977519;28;20070;-73
2022/09/21 05:04:00;;;;;;;2.40;1.25;;;6.70;99.90;;;;;;4984742;28;20046;-72
2022/09/21 05:06:27;;;;;;;4.88;1.67;;;6.80;99.90;;;;;;4986206;28;20045;-73
2022/09/21 05:11:45;;;;;;;1.20;0.80;;;6.80;99.90;;;;;;4949792;28;20506;-73
2022/09/21 05:14:11;;;;;;;3.50;0.70;;;6.80;99.90;;;;;;4987714;28;20064;-73
2022/09/21 05:16:37;;;;;;;0.93;0.80;;;6.80;99.90;;;;;;4983310;28;20039;-73
2022/09/21 05:19:03;;;;;;;1.45;0.73;;;6.80;99.90;;;;;;4987828;28;20054;-73
2022/09/21 05:21:30;;;;;;;1.38;0.80;;;6.80;99.90;;;;;;4976240;28;20152;-73
2022/09/21 05:23:56;;;;;;;1.48;0.80;;;6.80;99.90;;;;;;4980499;28;20089;-73
2022/09/21 05:26:23;;;;;;;1.05;0.95;;;6.80;99.90;;;;;;4979608;28;20113;-73
2022/09/21 05:28:49;;;;;;;1.80;1.20;;;6.80;99.90;;;;;;4975782;28;20051;-74
2022/09/21 05:31:29;;;;;;;1.00;0.90;;;6.80;99.90;;;;;;4992390;28;20038;-73
2022/09/21 05:34:04;;;;;;;1.88;0.90;;;6.80;99.90;;;;;;4977259;28;20134;-73
2022/09/21 05:36:48;;;;;;;2.90;1.10;;;6.80;99.90;;;;;;4973221;28;20049;-73
2022/09/21 05:39:14;;;;;;;1.85;0.90;;;6.80;99.90;;;;;;4976640;28;20505;-72
2022/09/21 05:41:40;;;;;;;1.25;1.08;;;6.70;99.90;;;;;;4987171;28;20050;-72
2022/09/21 05:44:08;;;;;;;1.70;1.02;;;6.80;99.90;;;;;;4983208;28;20096;-73
2022/09/21 05:46:47;;;;;;;1.38;0.95;;;6.70;99.90;;;;;;4989094;28;20046;-72
2022/09/21 05:49:20;;;;;;;3.70;1.10;;;6.80;99.90;;;;;;4983698;28;20034;-72
2022/09/21 05:52:13;;;;;;;1.50;0.80;;;6.80;99.90;;;;;;4977987;28;20050;-72
2022/09/21 05:55:09;;;;;;;1.00;0.90;;;6.80;99.90;;;;;;4982027;28;20057;-73
2022/09/21 05:57:49;;;;;;;3.13;1.20;;;6.80;99.90;;;;;;4984107;28;20452;-72
2022/09/21 06:00:19;;;;;;;1.00;0.90;;;6.80;99.90;;;;;;4978780;28;20050;-72
2022/09/21 06:03:15;;;;;;;1.48;0.70;;;6.80;99.90;;;;;;4972864;28;20051;-73
2022/09/21 06:05:42;;;;;;;1.08;0.80;;;6.80;99.90;;;;;;4962815;28;20121;-72
2022/09/21 06:08:07;;;;;;;0.82;0.82;;;6.80;99.90;;;;;;4982107;28;20120;-72
2022/09/21 06:10:34;;;;;;;0.47;0.30;;;6.90;99.90;;;;;;4975370;28;20044;-72
2022/09/21 06:12:59;;;;;;;0.95;0.50;;;6.90;99.90;;;;;;4980776;28;20078;-72
2022/09/21 06:15:26;;;;;;;2.60;0.80;;;6.90;99.90;;;;;;4980687;28;20074;-73
2022/09/21 06:17:51;;;;;;;1.20;0.80;;;6.80;99.90;;;;;;4981100;28;20054;-73
2022/09/21 06:20:17;;;;;;;1.10;1.00;;;6.80;99.90;;;;;;4981177;28;20315;-72
2022/09/21 06:22:43;;;;;;;1.73;1.20;;;6.80;99.90;;;;;;4981296;28;20050;-73
2022/09/21 06:25:08;;;;;;;1.00;0.75;;;6.80;99.90;;;;;;4988916;28;20172;-72
2022/09/21 06:27:34;;;;;;;4.63;1.00;;;6.80;99.90;;;;;;4980992;28;20046;-72
2022/09/21 06:30:00;;;;;;;1.35;0.95;;;6.90;99.90;;;;;;4979212;28;20038;-72
2022/09/21 06:32:25;;;;;;;0.90;0.90;;;6.90;99.90;;;;;;4981908;28;20120;-73
2022/09/21 06:34:51;;;;;;;4.47;1.23;;;7.00;99.90;;;;;;4986487;28;20066;-74
2022/09/21 06:37:16;;;;;;;1.98;1.70;;;7.00;99.90;;;;;;4977629;28;20061;-74
2022/09/21 06:39:42;;;;;;;1.70;1.60;;;7.00;99.90;;;;;;4987528;28;20042;-74
2022/09/21 06:42:08;;;;;;;2.55;1.90;;;7.00;99.90;;;;;;4976842;28;20342;-74
2022/09/21 06:44:33;;;;;;;3.85;1.50;;;7.00;99.90;;;;;;4987205;28;20073;-74
2022/09/21 06:46:59;;;;;;;2.58;1.20;;;7.10;99.90;;;;;;4984903;28;20042;-74
2022/09/21 06:49:27;;;;;;;5.30;1.40;;;7.10;99.90;;;;;;4990107;28;20125;-74
2022/09/21 06:51:53;;;;;;;2.65;1.30;;;7.10;99.90;;;;;;4978803;28;20137;-74
2022/09/21 06:54:19;;;;;;;4.93;1.40;;;7.10;99.90;;;;;;4986358;28;20054;-74
2022/09/21 06:56:45;;;;;;;5.07;1.50;;;7.20;99.90;;;;;;4976481;28;20054;-74
2022/09/21 06:59:10;;;;;;;4.88;2.20;;;7.20;99.90;;;;;;4976881;28;20050;-74
2022/09/21 07:01:36;;;;;;;3.63;1.95;;;7.20;99.90;;;;;;4980660;28;20047;-74
2022/09/21 07:04:02;;;;;;;4.20;2.28;;;7.30;99.90;;;;;;4976582;28;20038;-74
2022/09/21 07:06:28;;;;;;;2.40;2.20;;;7.30;99.90;;;;;;4975420;28;20051;-74
2022/09/21 07:08:54;;;;;;;7.95;2.50;;;7.40;99.90;;;;;;4970150;28;20145;-74
2022/09/21 07:11:21;;;;;;;5.05;2.80;;;7.40;99.90;;;;;;4986088;28;20122;-74
2022/09/21 07:13:47;;;;;;;4.93;3.20;;;7.50;99.90;;;;;;4987644;28;20434;-74
2022/09/21 07:16:12;;;;;;;5.72;3.03;;;7.60;99.90;;;;;;4988779;28;20089;-74
2022/09/21 07:18:39;;;;;;;9.65;3.35;;;7.70;99.90;;;;;;4978642;28;20129;-74
2022/09/21 07:21:07;;;;;;;10.32;4.53;;;7.80;99.90;;;;;;4975869;28;20559;-74
2022/09/21 07:23:33;;;;;;;9.40;4.15;;;8.00;99.90;;;;;;4971992;28;20047;-73
2022/09/21 07:26:08;;;;;;;5.97;3.53;;;8.10;99.90;;;;;;4958452;28;20058;-73
2022/09/21 07:28:34;;;;;;;3.95;3.08;;;8.20;99.90;;;;;;4975366;28;20126;-73
2022/09/21 07:31:08;;;;;;;9.20;5.63;;;8.30;99.90;;;;;;4979435;28;20563;-73
2022/09/21 07:33:35;;;;;;;9.48;5.45;;;8.40;99.90;;;;;;4983341;28;20054;-73
2022/09/21 07:36:02;;;;;;;12.23;6.38;;;8.60;99.90;;;;;;4980700;28;20082;-73
2022/09/21 07:38:28;;;;;;;7.97;5.72;;;8.80;99.90;;;;;;4990587;28;20054;-73
2022/09/21 07:40:53;;;;;;;12.48;6.13;;;9.00;99.90;;;;;;4989788;28;20092;-73
2022/09/21 07:43:19;;;;;;;9.15;5.28;;;9.10;99.90;;;;;;4981305;28;20062;-73
2022/09/21 07:45:53;;;;;;;11.75;7.07;;;9.20;99.90;;;;;;4987437;28;20049;-73
2022/09/21 07:48:19;;;;;;;13.25;6.68;;;9.30;99.90;;;;;;4988189;28;20043;-74
2022/09/21 07:50:44;;;;;;;12.88;7.15;;;9.50;99.90;;;;;;4990145;28;20798;-74
2022/09/21 07:53:10;;;;;;;12.05;7.30;;;9.60;99.90;;;;;;4980002;28;20050;-73
2022/09/21 07:55:35;;;;;;;12.60;7.65;;;9.80;99.90;;;;;;4988860;28;20210;-74
2022/09/21 08:00:45;;;;;;;16.10;7.82;;;10.00;99.90;;;;;;4977165;28;20112;-74
2022/09/21 08:03:11;;;;;;;12.45;7.00;;;10.10;99.90;;;;;;4993151;28;20050;-74
2022/09/21 08:05:37;;;;;;;13.52;7.07;;;10.30;99.90;;;;;;4988352;28;20120;-73
2022/09/21 08:08:02;;;;;;;11.88;5.75;;;10.40;99.90;;;;;;4990641;28;20046;-74
2022/09/21 08:10:29;;;;;;;12.30;4.68;;;10.50;99.90;;;;;;4977936;28;20046;-74
2022/09/21 08:12:56;;;;;;;10.48;4.78;;;10.60;99.90;;;;;;4990823;28;20046;-74
2022/09/21 08:15:21;;;;;;;12.65;4.32;;;10.70;99.90;;;;;;4983384;28;20048;-74
2022/09/21 08:17:47;;;;;;;12.23;3.60;;;10.80;99.90;;;;;;4982177;28;20092;-74
2022/09/21 08:20:13;;;;;;;11.70;3.50;;;10.90;99.90;;;;;;4990644;28;20069;-73
2022/09/21 08:22:40;;;;;;;13.57;4.00;;;11.10;99.90;;;;;;4986995;28;20134;-74
2022/09/21 08:25:05;;;;;;;8.15;3.55;;;11.20;99.90;;;;;;4972416;28;20069;-75
2022/09/21 08:27:31;;;;;;;14.27;3.35;;;11.30;99.90;;;;;;4981778;28;20045;-74
2022/09/21 08:29:57;;;;;;;14.55;3.00;;;11.40;99.90;;;;;;4989084;28;20038;-74
2022/09/21 08:32:22;;;;;;;11.52;3.22;;;11.50;99.90;;;;;;4992755;28;20125;-74
2022/09/21 08:34:48;;;;;;;13.95;2.85;;;11.60;99.90;;;;;;4976194;28;20124;-74
2022/09/21 08:37:14;;;;;;;11.95;2.67;;;11.70;99.90;;;;;;4985219;28;20070;-74
2022/09/21 08:39:40;;;;;;;6.50;2.42;;;11.80;99.90;;;;;;4978318;28;20388;-74
2022/09/21 08:42:18;;;;;;;7.97;2.70;;;11.90;99.90;;;;;;4986643;28;20049;-74
2022/09/21 08:44:50;;;;;;;10.15;2.40;;;12.00;99.90;;;;;;4975793;28;20503;-73
2022/09/21 08:47:21;;;;;;;13.07;2.47;;;12.10;99.90;;;;;;4985564;28;20038;-76
2022/09/21 08:49:54;;;;;;;9.40;2.47;;;12.30;99.90;;;;;;4977695;28;20077;-75
2022/09/21 08:52:23;;;;;;;10.20;2.50;;;12.40;99.90;;;;;;4976748;28;20216;-73
2022/09/21 08:55:14;;;;;;;7.13;2.20;;;12.50;99.90;;;;;;4975734;28;20042;-73
2022/09/21 08:57:39;;;;;;;6.75;2.35;;;12.60;99.90;;;;;;4989055;28;20041;-72
2022/09/21 09:00:12;;;;;;;7.53;2.78;;;12.70;99.90;;;;;;4977338;28;20105;-73
2022/09/21 09:02:56;;;;;;;7.53;2.42;;;12.90;99.90;;;;;;4981535;28;20109;-73
2022/09/21 09:05:32;;;;;;;10.55;2.47;;;13.00;99.90;;;;;;4990728;28;20038;-73
2022/09/21 09:07:58;;;;;;;8.02;2.97;;;13.10;99.90;;;;;;4993090;28;20039;-72
2022/09/21 09:10:40;;;;;;;11.20;2.53;;;13.20;99.90;;;;;;4977441;28;20235;-72
2022/09/21 09:13:35;;;;;;;14.45;2.85;;;13.40;99.90;;;;;;4990578;28;20050;-73
2022/09/21 09:16:12;;;;;;;5.60;2.50;;;13.50;99.90;;;;;;4987157;28;20061;-73
2022/09/21 09:18:52;;;;;;;13.18;2.75;;;13.70;99.90;;;;;;4979666;28;20093;-73
2022/09/21 09:21:33;;;;;;;11.18;2.30;;;13.80;99.90;;;;;;4977898;28;20046;-72
2022/09/21 09:24:15;;;;;;;6.47;1.85;;;13.90;99.90;;;;;;4971698;28;20137;-72
2022/09/21 09:26:55;;;;;;;8.88;1.77;;;14.00;99.90;;;;;;4983831;28;20068;-73
2022/09/21 09:29:27;;;;;;;10.57;2.10;;;14.10;99.90;;;;;;4983663;28;20137;-73
2022/09/21 09:31:54;;;;;;;9.90;2.22;;;14.20;99.90;;;;;;4982772;28;20096;-73
2022/09/21 09:34:42;;;;;;;6.22;2.00;;;14.30;99.90;;;;;;4975382;28;20051;-73
2022/09/21 09:37:13;;;;;;;7.35;1.63;;;14.40;99.90;;;;;;4976113;28;20074;-73
2022/09/21 09:39:41;;;;;;;9.75;1.90;;;14.40;99.90;;;;;;4989388;28;20046;-73
2022/09/21 09:42:18;;;;;;;8.85;2.03;;;14.50;99.90;;;;;;4957336;28;20046;-73
2022/09/21 09:45:17;;;;;;;9.75;2.35;;;14.70;99.90;;;;;;4980277;28;20038;-73
2022/09/21 09:48:19;;;;;;;8.27;2.40;;;14.80;99.90;;;;;;4986020;28;20038;-73
2022/09/21 09:50:45;;;;;;;10.10;2.67;;;15.00;99.90;;;;;;4975636;28;20050;-73
2022/09/21 09:53:16;;;;;;;10.63;2.42;;;14.90;99.90;;;;;;4986026;28;20157;-73
2022/09/21 09:55:46;;;;;;;9.07;2.28;;;14.90;99.90;;;;;;4991022;28;20077;-73
2022/09/21 09:58:33;;;;;;;7.60;2.42;;;14.90;99.90;;;;;;4980869;28;20062;-73
2022/09/21 10:00:59;;;;;;;7.85;1.92;;;15.00;99.90;;;;;;4982981;28;20054;-73
2022/09/21 10:03:26;;;;;;;7.25;2.30;;;15.10;99.90;;;;;;4972285;28;20050;-73
2022/09/21 10:05:52;;;;;;;14.80;2.40;;;15.30;99.90;;;;;;4982911;28;20085;-73
2022/09/21 10:08:43;;;;;;;8.63;2.17;;;15.30;99.90;;;;;;4983446;28;20042;-73
2022/09/21 10:11:11;;;;;;;8.02;2.00;;;15.40;99.90;;;;;;4983202;28;20057;-73
2022/09/21 10:13:42;;;;;;;12.20;2.30;;;15.50;99.90;;;;;;4990991;28;20077;-73
2022/09/21 10:16:16;;;;;;;10.20;2.78;;;15.70;99.90;;;;;;4979918;28;20058;-73
2022/09/21 10:18:55;;;;;;;7.90;2.20;;;15.90;99.90;;;;;;4975374;28;20055;-73
2022/09/21 10:21:42;;;;;;;5.63;1.67;;;16.20;99.90;;;;;;4979040;28;20121;-73
2022/09/21 10:24:28;;;;;;;7.20;1.80;;;16.40;99.90;;;;;;4984176;28;20141;-73
2022/09/21 10:27:02;;;;;;;7.13;1.60;;;16.70;99.90;;;;;;4987536;28;20048;-74
2022/09/21 10:29:31;;;;;;;4.55;1.55;;;16.90;99.90;;;;;;4989669;28;20050;-73
2022/09/21 10:32:11;;;;;;;9.13;2.33;;;17.20;99.90;;;;;;4978143;28;20051;-73
2022/09/21 10:34:38;;;;;;;7.15;2.10;;;17.40;99.90;;;;;;4986901;28;20097;-74
2022/09/21 10:37:28;;;;;;;8.27;2.15;;;17.60;99.90;;;;;;4959704;28;20081;-73
2022/09/21 10:39:56;;;;;;;8.70;2.03;;;17.90;99.90;;;;;;4971488;28;20046;-73
2022/09/21 10:42:21;;;;;;;7.43;1.52;;;18.10;99.90;;;;;;4985062;28;20105;-73
2022/09/21 10:45:15;;;;;;;4.88;1.77;;;18.30;99.90;;;;;;4977628;28;20447;-74
2022/09/21 10:47:45;;;;;;;9.88;2.10;;;18.30;99.90;;;;;;4973717;28;20138;-74
2022/09/21 10:50:22;;;;;;;10.15;1.88;;;18.60;99.90;;;;;;4973418;28;20045;-74
2022/09/21 10:52:50;;;;;;;5.88;1.92;;;18.70;99.90;;;;;;4978782;28;20047;-74
2022/09/21 10:55:18;;;;;;;7.82;1.63;;;18.90;99.90;;;;;;4976201;28;20049;-74
2022/09/21 10:57:44;;;;;;;7.82;1.65;;;18.90;99.90;;;;;;4978814;28;20042;-74
2022/09/21 11:00:28;;;;;;;6.40;1.38;;;19.20;99.40;;;;;;4972956;28;20130;-74
2022/09/21 11:02:55;;;;;;;7.47;1.60;;;19.40;97.10;;;;;;4982181;28;20043;-74
2022/09/21 11:05:49;;;;;;;7.68;1.45;;;19.50;97.70;;;;;;4982317;28;20046;-74
2022/09/21 11:08:21;;;;;;;7.07;1.40;;;19.30;97.90;;;;;;4975972;28;20057;-74
2022/09/21 11:11:00;;;;;;;5.32;1.35;;;19.10;97.40;;;;;;4978993;28;20042;-73
2022/09/21 11:13:45;;;;;;;8.07;1.60;;;18.80;97.00;;;;;;4982548;28;20053;-74
2022/09/21 11:16:20;;;;;;;6.90;1.40;;;18.70;98.60;;;;;;4991138;28;20112;-73
2022/09/21 11:19:17;;;;;;;5.63;1.80;;;18.70;99.40;;;;;;4984249;28;20058;-77
2022/09/21 11:22:06;;;;;;;5.63;1.10;;;18.70;99.30;;;;;;4961498;28;20049;-76
2022/09/21 11:24:38;;;;;;;7.53;1.65;;;18.60;99.90;;;;;;4996193;28;20045;-75
2022/09/21 11:27:28;;;;;;;6.50;1.50;;;18.40;99.90;;;;;;4991076;28;20053;-78
2022/09/21 11:30:02;;;;;;;7.38;1.40;;;18.30;99.70;;;;;;4981460;28;20282;-76
2022/09/21 11:33:06;;;;;;;7.97;1.45;;;18.10;99.90;;;;;;4990619;28;20053;-77
2022/09/21 11:35:57;;;;;;;8.35;1.25;;;17.90;99.90;;;;;;4989118;28;20137;-75
2022/09/21 11:38:53;;;;;;;5.22;1.42;;;17.80;99.90;;;;;;4976281;28;20046;-75
2022/09/21 11:41:43;;;;;;;7.35;1.65;;;17.60;99.90;;;;;;4979153;28;20046;-76
2022/09/21 11:44:18;;;;;;;4.88;1.40;;;17.40;99.90;;;;;;4995492;28;20055;-76
2022/09/21 11:46:43;;;;;;;6.45;1.60;;;17.30;99.90;;;;;;4990264;28;20077;-75
2022/09/21 11:49:37;;;;;;;5.65;1.55;;;17.10;99.90;;;;;;4974803;28;20101;-75
2022/09/21 11:52:31;;;;;;;8.30;1.48;;;17.00;99.90;;;;;;4981332;28;20045;-75
2022/09/21 11:55:22;;;;;;;5.68;1.30;;;16.90;99.90;;;;;;4987041;28;20085;-76
2022/09/21 11:58:11;;;;;;;7.85;1.60;;;16.70;99.90;;;;;;4980712;28;20042;-75
2022/09/21 12:01:05;;;;;;;7.18;1.20;;;16.60;99.90;;;;;;4981746;28;20500;-75
2022/09/21 12:04:09;;;;;;;7.78;1.52;;;16.50;99.90;;;;;;4984394;28;20046;-75
2022/09/21 12:07:00;;;;;;;6.95;1.10;;;16.40;99.90;;;;;;4988598;28;20050;-75
2022/09/21 12:09:40;;;;;;;8.57;1.50;;;16.40;99.90;;;;;;4979707;28;20042;-75
2022/09/21 12:12:20;;;;;;;8.25;1.40;;;16.30;99.90;;;;;;4993779;28;20055;-75
2022/09/21 12:15:07;;;;;;;8.40;1.67;;;16.10;99.90;;;;;;4989593;28;20043;-74
2022/09/21 12:17:49;;;;;;;3.65;1.10;;;16.00;99.90;;;;;;4992179;28;20059;-76
2022/09/21 12:20:28;;;;;;;4.53;1.17;;;15.90;99.90;;;;;;4975368;28;20046;-74
2022/09/21 12:23:05;;;;;;;7.38;1.50;;;15.90;99.90;;;;;;4986252;28;20147;-76
2022/09/21 12:25:40;;;;;;;4.82;1.08;;;15.80;99.90;;;;;;4984949;28;20046;-76
2022/09/21 12:28:19;;;;;;;10.95;1.90;;;15.80;99.90;;;;;;4991759;28;20046;-76
2022/09/21 12:30:47;;;;;;;4.35;1.17;;;16.10;99.90;;;;;;4990577;28;20084;-74
2022/09/21 12:33:50;;;;;;;7.68;1.55;;;16.50;99.90;;;;;;4984844;28;20076;-75
2022/09/21 12:36:21;;;;;;;;;;;17.10;99.90;;;;;;4986459;28;20103;-75
2022/09/21 12:39:11;;;;;;;5.43;1.30;;;17.60;99.90;;;;;;4989427;28;19924;-75
2022/09/21 12:42:01;;;;;;;11.05;1.70;;;17.70;99.90;;;;;;4982919;28;20061;-75
2022/09/21 12:44:51;;;;;;;7.32;1.77;;;17.70;99.90;;;;;;4978112;28;20050;-75
2022/09/21 12:47:28;;;;;;;6.50;1.83;;;17.90;99.90;;;;;;4978563;28;20042;-75
2022/09/21 12:50:00;;;;;;;7.18;1.55;;;18.30;98.90;;;;;;4967475;28;20077;-75
2022/09/21 12:52:27;;;;;;;3.40;1.25;;;18.60;99.90;;;;;;4981667;28;20050;-75
2022/09/21 12:54:58;;;;;;;9.70;1.70;;;18.60;99.90;;;;;;4982521;28;20042;-75
2022/09/21 12:57:47;;;;;;;5.43;1.23;;;18.50;99.90;;;;;;4983804;28;20056;-75
2022/09/21 13:00:17;;;;;;;5.82;1.60;;;18.60;99.90;;;;;;4983810;28;20058;-75
2022/09/21 13:03:02;;;;;;;6.97;1.35;;;18.90;99.70;;;;;;4980303;28;20415;-75
2022/09/21 13:05:48;;;;;;;7.68;1.52;;;19.00;94.00;;;;;;4990546;28;20128;-76
2022/09/21 13:08:23;;;;;;;5.03;1.50;;;19.10;96.10;;;;;;4986147;28;20510;-76
2022/09/21 13:11:06;;;;;;;5.05;1.48;;;19.20;95.60;;;;;;4982796;28;20042;-75
2022/09/21 13:13:44;;;;;;;15.27;1.80;;;19.50;95.40;;;;;;4985815;28;20047;-78
2022/09/21 13:16:28;;;;;;;140.57;6.80;;;19.40;93.90;;;;;;4998238;28;20150;-78
2022/09/21 13:19:21;;;;;;;9.07;1.42;;;19.20;94.30;;;;;;4984563;28;20046;-77
2022/09/21 13:22:14;;;;;;;7.45;1.67;;;19.10;96.20;;;;;;4974279;28;20053;-76
2022/09/21 13:24:41;;;;;;;7.13;1.30;;;19.00;97.00;;;;;;4985309;28;20077;-76
2022/09/21 13:27:08;;;;;;;7.18;1.60;;;19.00;95.90;;;;;;4990034;28;20085;-77